Etusivu
METAR-TAF:

METAR-TAF

Lentoasemat :

Bermuda, Bermuda

Leveyspiiri: 32-22N, Pituuspiiri: 064-41W, korkeus merenpinnasta: 6 m

Tämänhetkinen sää

Tämä raportti tehtiin 6 tuntia ja 50 minuuttia sitten, kello 14.55 UTC
Tuuli 14 kn idästä
Lämpötila 20°C
Kosteus 56%
Ilmanpaine 1036 hPa
Näkyvyys 10 km tai enemmän
Muutamia pilviä 3500 ft:n korkeudessa
Hajanaisia pilviä 5600 ft:n korkeudessa

METAR: TXKF 201455Z 10014KT 9999 FEW035 SCT056 20/11 Q1036

Aika: 17:45 (21:45 UTC)

Sääennuste

Tämä raportti tehtiin 10 tuntia ja 14 minuuttia sitten, kello 11.31 UTC
Ennuste voimassa 20. päivästä klo 12 UTC - 21. päivään klo 12 UTC
Tuuli 10 kn idästä
Näkyvyys 10 km tai enemmän
Muutamia pilviä 3500 ft:n korkeudessa
Hajonneita pilviä 5000 ft:n korkeudessa

TAF: TXKF 201131Z 2012/2112 09010KT 9999 FEW035 BKN050

Säähavainnot ja -ennusteet yli 4000 lentoasemalta (METAR- ja TAF-raportit).

Käytössä olevat sääasemat on merkitty karttaan keltaisilla ja punaisilla pisteillä.

Aseta hiiri pisteen päälle nähdäksesi sääaseman nimen.

Klikkaa sitten nähdäksesi säähavainnot ja -ennusteet.

Kartan vaihtaminen: klikkaa mustalla rastilla varustettuja vihreitä pisteitä, niin voit zoomata sisään; viivalla varustettua vihreää pistettä, niin voit zoomata ulos tai vihreitä nuolia, niin pääset viereisille kartoille.


METAR-TAF: